Time;durP1;ratioP1;P1;durP2;ratioP2;P2;SDS_P1;SDS_P2;PMS_P1;PMS_P2;Temp;Humidity;BMP_temperature;BMP_pressure;BME280_temperature;BME280_humidity;BME280_pressure;Samples;Min_cycle;Max_cycle;Signal;HPM_P1;HPM_P2
2022/03/16 00:00:17;;;;;;;30.13;23.45;;;9.90;95.30;;;;;;5115227;28;20035;-79
2022/03/16 00:02:43;;;;;;;26.85;22.02;;;9.90;96.20;;;;;;5114974;28;20054;-88
2022/03/16 00:05:09;;;;;;;35.78;24.25;;;9.90;96.40;;;;;;5115063;28;20032;-80
2022/03/16 00:07:35;;;;;;;28.65;22.55;;;9.90;97.20;;;;;;5115262;27;20076;-79
2022/03/16 00:10:00;;;;;;;35.00;23.13;;;9.90;97.80;;;;;;5114594;28;20436;-80
2022/03/16 00:12:26;;;;;;;31.73;23.73;;;9.80;98.00;;;;;;5115447;28;20103;-80
2022/03/16 00:14:52;;;;;;;31.52;22.92;;;9.80;97.90;;;;;;5113753;28;20480;-80
2022/03/16 00:17:17;;;;;;;33.58;24.90;;;9.80;98.30;;;;;;5116667;28;20028;-80
2022/03/16 00:19:44;;;;;;;32.95;25.65;;;9.80;98.90;;;;;;5118765;28;20031;-88
2022/03/16 00:22:10;;;;;;;31.17;22.60;;;9.70;99.40;;;;;;5119205;28;20080;-80
2022/03/16 00:24:36;;;;;;;32.58;25.05;;;9.80;99.70;;;;;;5118582;28;20069;-79
2022/03/16 00:27:02;;;;;;;31.33;23.58;;;9.70;99.90;;;;;;5115099;28;20103;-80
2022/03/16 00:29:28;;;;;;;31.63;23.75;;;9.70;99.90;;;;;;5114761;28;20517;-79
2022/03/16 00:31:53;;;;;;;29.35;23.67;;;9.70;99.90;;;;;;5113845;28;20049;-79
2022/03/16 00:34:19;;;;;;;32.25;23.05;;;9.70;99.90;;;;;;5114439;28;20024;-79
2022/03/16 00:36:45;;;;;;;28.73;21.45;;;9.70;99.90;;;;;;5114152;28;20031;-83
2022/03/16 00:39:11;;;;;;;31.77;22.27;;;9.70;99.90;;;;;;5114885;28;20028;-79
2022/03/16 00:41:37;;;;;;;33.63;21.70;;;9.70;99.90;;;;;;5114462;28;20028;-79
2022/03/16 00:44:04;;;;;;;29.65;20.67;;;9.70;99.90;;;;;;5113950;28;20122;-79
2022/03/16 00:46:30;;;;;;;29.88;22.02;;;9.70;99.90;;;;;;5114535;28;20027;-79
2022/03/16 00:48:56;;;;;;;37.58;21.77;;;9.70;99.90;;;;;;5113897;28;20062;-79
2022/03/16 00:51:22;;;;;;;30.17;21.83;;;9.70;99.90;;;;;;5114090;28;20047;-79
2022/03/16 00:53:48;;;;;;;30.92;22.52;;;9.70;99.90;;;;;;5113798;28;20391;-79
2022/03/16 00:56:14;;;;;;;31.05;22.65;;;9.70;99.90;;;;;;5113778;28;20054;-79
2022/03/16 00:58:39;;;;;;;29.70;22.23;;;9.70;99.90;;;;;;5114065;28;20036;-79
2022/03/16 01:01:06;;;;;;;31.65;22.38;;;9.70;99.90;;;;;;5113370;28;20031;-80
2022/03/16 01:03:33;;;;;;;30.83;22.50;;;9.70;99.90;;;;;;5114353;27;20047;-79
2022/03/16 01:05:59;;;;;;;27.35;21.80;;;9.70;99.90;;;;;;5113574;27;20035;-79
2022/03/16 01:08:25;;;;;;;30.75;21.90;;;9.70;99.90;;;;;;5114062;28;20478;-79
2022/03/16 01:10:51;;;;;;;29.48;22.70;;;9.70;99.90;;;;;;5113649;28;20023;-79
2022/03/16 01:13:16;;;;;;;29.42;21.77;;;9.70;99.90;;;;;;5113716;28;20028;-79
2022/03/16 01:15:42;;;;;;;27.70;22.13;;;9.70;99.90;;;;;;5113985;28;20030;-79
2022/03/16 01:18:08;;;;;;;32.55;19.63;;;9.70;99.90;;;;;;5113037;28;20112;-75
2022/03/16 01:20:33;;;;;;;30.55;18.20;;;9.80;99.90;;;;;;5113634;28;20079;-75
2022/03/16 01:22:59;;;;;;;32.13;19.00;;;9.80;99.90;;;;;;5112657;28;20468;-75
2022/03/16 01:25:25;;;;;;;32.72;16.40;;;9.80;99.90;;;;;;5113397;28;20030;-75
2022/03/16 01:27:50;;;;;;;24.48;14.80;;;9.90;99.90;;;;;;5111384;28;20039;-76
2022/03/16 01:30:16;;;;;;;27.15;13.25;;;9.90;99.90;;;;;;5113298;28;20085;-76
2022/03/16 01:32:42;;;;;;;27.15;12.38;;;10.00;99.90;;;;;;5112855;28;20106;-75
2022/03/16 01:35:09;;;;;;;22.77;10.63;;;10.10;99.90;;;;;;5112604;28;20104;-75
2022/03/16 01:37:34;;;;;;;19.85;8.07;;;10.10;99.90;;;;;;5113046;28;20023;-75
2022/03/16 01:40:01;;;;;;;21.65;8.25;;;10.20;99.90;;;;;;5112497;28;20030;-75
2022/03/16 01:42:27;;;;;;;18.88;6.90;;;10.30;99.90;;;;;;5113125;28;20063;-75
2022/03/16 01:44:56;;;;;;;14.77;6.72;;;10.30;99.90;;;;;;5110364;28;20030;-74
2022/03/16 01:47:24;;;;;;;12.95;6.50;;;10.40;99.90;;;;;;5113108;28;20035;-75
2022/03/16 01:49:51;;;;;;;13.85;7.25;;;10.40;99.90;;;;;;5112701;28;20031;-78
2022/03/16 01:52:20;;;;;;;19.10;7.25;;;10.50;99.90;;;;;;5113056;28;20024;-75
2022/03/16 01:54:47;;;;;;;13.90;6.70;;;10.50;99.90;;;;;;5112682;28;20027;-76
2022/03/16 01:57:13;;;;;;;19.27;7.28;;;10.60;99.90;;;;;;5111806;28;20555;-75
2022/03/16 01:59:40;;;;;;;18.65;7.70;;;10.60;99.90;;;;;;5112739;28;20054;-75
2022/03/16 02:02:07;;;;;;;20.48;8.07;;;10.60;99.90;;;;;;5112174;28;20114;-75
2022/03/16 02:04:33;;;;;;;17.15;7.80;;;10.60;99.90;;;;;;5112362;28;20472;-76
2022/03/16 02:06:59;;;;;;;16.77;8.13;;;10.60;99.90;;;;;;5112018;28;20032;-76
2022/03/16 02:09:26;;;;;;;16.27;7.20;;;10.60;99.90;;;;;;5112235;28;20027;-76
2022/03/16 02:11:52;;;;;;;14.18;7.68;;;10.60;99.90;;;;;;5111825;28;20024;-78
2022/03/16 02:14:20;;;;;;;18.50;8.32;;;10.60;99.90;;;;;;5112578;28;20028;-75
2022/03/16 02:16:47;;;;;;;13.57;8.23;;;10.60;99.90;;;;;;5112283;28;20039;-75
2022/03/16 02:19:13;;;;;;;21.77;8.60;;;10.60;99.90;;;;;;5111723;28;20053;-75
2022/03/16 02:21:40;;;;;;;11.68;8.07;;;10.70;99.90;;;;;;5111118;28;20024;-76
2022/03/16 02:24:07;;;;;;;13.60;8.75;;;10.70;99.90;;;;;;5110235;28;20127;-75
2022/03/16 02:26:51;;;;;;;14.63;8.27;;;10.70;99.90;;;;;;5112614;28;20020;-75
2022/03/16 02:29:17;;;;;;;12.23;8.25;;;10.70;99.90;;;;;;5111849;28;20072;-74
2022/03/16 02:31:42;;;;;;;19.05;8.70;;;10.70;99.90;;;;;;5112274;28;20098;-75
2022/03/16 02:34:08;;;;;;;18.65;8.77;;;10.70;99.90;;;;;;5111890;28;20445;-75
2022/03/16 02:36:34;;;;;;;15.25;8.55;;;10.70;99.90;;;;;;5112332;28;20069;-75
2022/03/16 02:38:59;;;;;;;15.63;9.30;;;10.70;99.90;;;;;;5111819;28;20039;-75
2022/03/16 02:41:25;;;;;;;11.80;7.80;;;10.70;99.90;;;;;;5111069;28;20431;-75
2022/03/16 02:43:51;;;;;;;15.25;9.13;;;10.70;99.90;;;;;;5110938;28;20456;-75
2022/03/16 02:46:16;;;;;;;16.15;8.50;;;10.60;99.90;;;;;;5111742;28;20035;-76
2022/03/16 02:48:42;;;;;;;11.52;8.77;;;10.70;99.90;;;;;;5112288;28;20036;-75
2022/03/16 02:51:08;;;;;;;14.07;8.80;;;10.70;99.90;;;;;;5111737;28;20020;-75
2022/03/16 02:53:33;;;;;;;16.92;8.85;;;10.60;99.90;;;;;;5111848;28;20426;-76
2022/03/16 02:55:59;;;;;;;16.38;9.65;;;10.60;99.90;;;;;;5113602;28;20096;-74
2022/03/16 02:58:25;;;;;;;15.35;9.43;;;10.60;99.90;;;;;;5115993;28;20027;-75
2022/03/16 03:00:50;;;;;;;15.05;9.93;;;10.60;99.90;;;;;;5116056;28;20027;-75
2022/03/16 03:03:17;;;;;;;14.90;9.35;;;10.60;99.90;;;;;;5115303;28;20024;-76
2022/03/16 03:05:43;;;;;;;12.57;8.57;;;10.60;99.90;;;;;;5115963;28;20019;-75
2022/03/16 03:08:08;;;;;;;15.07;9.38;;;10.60;99.90;;;;;;5115065;28;20476;-75
2022/03/16 03:10:34;;;;;;;14.25;9.27;;;10.60;99.90;;;;;;5116198;28;20068;-75
2022/03/16 03:13:00;;;;;;;14.98;9.55;;;10.60;99.90;;;;;;5114190;28;20051;-76
2022/03/16 03:15:25;;;;;;;14.93;9.63;;;10.60;99.90;;;;;;5115878;28;20388;-76
2022/03/16 03:17:51;;;;;;;16.63;10.55;;;10.60;99.90;;;;;;5115351;28;20020;-75
2022/03/16 03:20:17;;;;;;;12.35;10.25;;;10.60;99.90;;;;;;5113790;28;20027;-75
2022/03/16 03:22:43;;;;;;;15.75;10.82;;;10.60;99.90;;;;;;5115630;28;20024;-75
2022/03/16 03:25:13;;;;;;;14.02;11.05;;;10.60;99.90;;;;;;5115056;28;20089;-75
2022/03/16 03:27:39;;;;;;;16.25;11.63;;;10.60;99.90;;;;;;5115562;28;20031;-76
2022/03/16 03:30:06;;;;;;;13.18;10.88;;;10.60;99.90;;;;;;5115048;28;20035;-75
2022/03/16 03:32:32;;;;;;;16.63;11.30;;;10.60;99.90;;;;;;5115445;28;20058;-76
2022/03/16 03:34:57;;;;;;;14.25;12.25;;;10.60;99.90;;;;;;5115183;28;20024;-76
2022/03/16 03:37:30;;;;;;;17.88;13.85;;;10.60;99.90;;;;;;5114169;28;20115;-75
2022/03/16 03:39:56;;;;;;;17.85;13.18;;;10.60;99.90;;;;;;5115432;28;20031;-76
2022/03/16 03:42:22;;;;;;;14.70;12.63;;;10.50;99.90;;;;;;5114804;28;20020;-76
2022/03/16 03:44:48;;;;;;;17.83;12.98;;;10.50;99.90;;;;;;5115226;28;20038;-76
2022/03/16 03:47:14;;;;;;;16.00;13.07;;;10.50;99.90;;;;;;5113424;28;20391;-75
2022/03/16 03:49:42;;;;;;;14.18;12.65;;;10.40;99.90;;;;;;5114871;28;20069;-75
2022/03/16 03:52:08;;;;;;;12.05;10.80;;;10.30;99.90;;;;;;5114515;28;20032;-75
2022/03/16 03:54:34;;;;;;;12.75;10.15;;;10.30;99.90;;;;;;5115046;28;20330;-75
2022/03/16 03:57:01;;;;;;;11.85;10.02;;;10.20;99.90;;;;;;5114488;28;20039;-75
2022/03/16 03:59:27;;;;;;;11.30;10.07;;;10.30;99.90;;;;;;5113536;28;20035;-75
2022/03/16 04:01:52;;;;;;;12.35;9.30;;;10.30;99.90;;;;;;5114830;28;20460;-75
2022/03/16 04:04:19;;;;;;;10.63;9.35;;;10.20;99.90;;;;;;5113115;28;20300;-76
2022/03/16 04:06:44;;;;;;;10.30;9.30;;;10.20;99.90;;;;;;5113440;28;20383;-75
2022/03/16 04:09:11;;;;;;;11.57;9.20;;;10.20;99.90;;;;;;5114041;28;20107;-76
2022/03/16 04:11:37;;;;;;;10.50;8.95;;;10.20;99.90;;;;;;5114331;28;20027;-75
2022/03/16 04:14:03;;;;;;;10.57;9.45;;;10.20;99.90;;;;;;5112810;28;20375;-75
2022/03/16 04:16:28;;;;;;;10.30;9.10;;;10.20;99.90;;;;;;5114312;28;20024;-74
2022/03/16 04:18:54;;;;;;;9.27;8.20;;;10.20;99.90;;;;;;5114803;28;20024;-74
2022/03/16 04:21:20;;;;;;;11.48;9.65;;;10.20;99.90;;;;;;5114003;28;20464;-74
2022/03/16 04:23:46;;;;;;;10.45;8.63;;;10.20;99.90;;;;;;5112115;28;20486;-75
2022/03/16 04:26:12;;;;;;;11.30;8.80;;;10.20;99.90;;;;;;5113878;28;20039;-75
2022/03/16 04:28:38;;;;;;;11.38;8.52;;;10.20;99.90;;;;;;5114247;28;20368;-75
2022/03/16 04:31:03;;;;;;;11.15;7.32;;;10.20;99.90;;;;;;5113704;28;20088;-75
2022/03/16 04:33:30;;;;;;;9.43;8.15;;;10.20;99.80;;;;;;5112955;28;20028;-74
2022/03/16 04:35:56;;;;;;;9.57;7.40;;;10.20;99.10;;;;;;5114141;28;20027;-75
2022/03/16 04:38:22;;;;;;;7.72;6.97;;;10.10;98.20;;;;;;5113308;28;20321;-75
2022/03/16 04:40:48;;;;;;;8.48;7.35;;;10.10;97.70;;;;;;5114476;28;20020;-75
2022/03/16 04:43:14;;;;;;;8.32;7.53;;;10.10;97.90;;;;;;5113865;28;20031;-75
2022/03/16 04:45:41;;;;;;;9.07;8.02;;;10.00;97.80;;;;;;5114073;28;20108;-76
2022/03/16 04:48:11;;;;;;;8.73;7.82;;;10.00;98.00;;;;;;5113582;28;20035;-75
2022/03/16 04:50:40;;;;;;;8.43;7.50;;;10.00;97.90;;;;;;5114132;28;20028;-74
2022/03/16 04:53:07;;;;;;;8.98;8.07;;;10.00;98.00;;;;;;5112097;28;20680;-75
2022/03/16 04:55:35;;;;;;;9.93;8.48;;;9.90;98.10;;;;;;5113850;28;20135;-74
2022/03/16 04:58:02;;;;;;;10.13;8.10;;;9.90;97.90;;;;;;5113257;28;20512;-75
2022/03/16 05:00:28;;;;;;;12.70;9.93;;;9.90;97.70;;;;;;5113739;28;20028;-75
2022/03/16 05:02:54;;;;;;;11.20;10.05;;;9.90;97.00;;;;;;5113737;28;20031;-76
2022/03/16 05:05:19;;;;;;;11.02;9.75;;;9.90;95.90;;;;;;5113101;28;20030;-75
2022/03/16 05:07:45;;;;;;;12.32;10.85;;;9.90;95.50;;;;;;5113849;28;20031;-74
2022/03/16 05:10:11;;;;;;;12.50;11.20;;;9.80;94.60;;;;;;5111746;28;20380;-75
2022/03/16 05:12:41;;;;;;;15.15;11.57;;;9.80;94.50;;;;;;5113705;28;20019;-76
2022/03/16 05:15:10;;;;;;;13.35;11.95;;;9.80;94.20;;;;;;5111649;28;20057;-75
2022/03/16 05:17:35;;;;;;;13.48;11.95;;;9.80;93.50;;;;;;5113373;28;20038;-75
2022/03/16 05:20:01;;;;;;;14.13;12.65;;;9.80;93.50;;;;;;5113310;28;20015;-75
2022/03/16 05:22:27;;;;;;;13.65;12.25;;;9.80;93.50;;;;;;5112459;28;20055;-75
2022/03/16 05:24:53;;;;;;;15.20;13.10;;;9.80;93.60;;;;;;5113121;28;20024;-75
2022/03/16 05:27:20;;;;;;;15.48;13.63;;;9.80;93.40;;;;;;5112701;28;20028;-75
2022/03/16 05:29:46;;;;;;;15.05;13.20;;;9.80;93.20;;;;;;5113188;28;20294;-75
2022/03/16 05:32:12;;;;;;;15.02;13.40;;;9.80;92.80;;;;;;5112545;28;20019;-76
2022/03/16 05:34:37;;;;;;;15.57;13.98;;;9.70;92.80;;;;;;5113097;28;20029;-75
2022/03/16 05:37:04;;;;;;;16.67;13.95;;;9.70;92.90;;;;;;5111595;28;20035;-75
2022/03/16 05:39:29;;;;;;;14.77;12.95;;;9.80;92.60;;;;;;5113307;28;20479;-75
2022/03/16 05:41:55;;;;;;;16.25;13.90;;;9.70;92.20;;;;;;5112892;28;20059;-76
2022/03/16 05:44:20;;;;;;;18.30;14.80;;;9.70;92.10;;;;;;5112591;28;20458;-76
2022/03/16 05:46:46;;;;;;;15.32;13.70;;;9.70;92.10;;;;;;5111364;28;20107;-75
2022/03/16 05:49:12;;;;;;;18.42;15.90;;;9.70;92.20;;;;;;5111108;28;20023;-76
2022/03/16 05:51:37;;;;;;;17.70;15.02;;;9.70;91.40;;;;;;5112997;28;20035;-75
2022/03/16 05:54:03;;;;;;;19.58;16.98;;;9.70;91.40;;;;;;5111565;28;20475;-75
2022/03/16 05:56:30;;;;;;;21.58;17.33;;;9.70;91.20;;;;;;5110588;28;20055;-76
2022/03/16 05:58:55;;;;;;;20.65;17.10;;;9.70;91.30;;;;;;5112675;28;20084;-76
2022/03/16 06:01:22;;;;;;;19.48;16.67;;;9.70;91.30;;;;;;5112184;28;20056;-75
2022/03/16 06:03:48;;;;;;;20.10;18.00;;;9.70;91.20;;;;;;5112741;28;20476;-75
2022/03/16 06:06:15;;;;;;;21.48;18.23;;;9.70;91.30;;;;;;5111853;28;20108;-79
2022/03/16 06:08:41;;;;;;;21.73;18.70;;;9.70;91.10;;;;;;5110814;28;20415;-80
2022/03/16 06:11:06;;;;;;;20.33;17.85;;;9.70;91.30;;;;;;5112385;28;20028;-80
2022/03/16 06:13:32;;;;;;;20.70;18.15;;;9.70;91.30;;;;;;5112509;28;20081;-80
2022/03/16 06:15:58;;;;;;;20.73;18.52;;;9.70;91.40;;;;;;5111965;28;20106;-79
2022/03/16 06:18:23;;;;;;;23.33;18.38;;;9.60;91.00;;;;;;5111367;28;20107;-81
2022/03/16 06:20:49;;;;;;;20.48;17.85;;;9.60;91.20;;;;;;5111893;28;20031;-81
2022/03/16 06:23:15;;;;;;;22.02;18.40;;;9.60;91.40;;;;;;5110697;28;20032;-82
2022/03/16 06:25:41;;;;;;;22.10;18.73;;;9.60;91.70;;;;;;5112871;28;20020;-80
2022/03/16 06:28:07;;;;;;;22.15;19.05;;;9.50;91.70;;;;;;5111378;28;20039;-80
2022/03/16 06:30:33;;;;;;;24.08;19.20;;;9.50;92.20;;;;;;5114050;28;20027;-79
2022/03/16 06:32:59;;;;;;;26.45;20.88;;;9.50;92.40;;;;;;5117129;27;20027;-80
2022/03/16 06:35:24;;;;;;;25.20;19.95;;;9.40;92.40;;;;;;5116691;28;20151;-80
2022/03/16 06:37:50;;;;;;;24.90;20.75;;;9.40;92.80;;;;;;5116823;28;20035;-81
2022/03/16 06:40:16;;;;;;;26.23;20.50;;;9.40;92.90;;;;;;5116305;28;20027;-82
2022/03/16 06:42:54;;;;;;;27.00;20.95;;;9.40;92.90;;;;;;5117062;28;20448;-80
2022/03/16 06:45:21;;;;;;;26.65;21.02;;;9.40;93.30;;;;;;5116658;28;20098;-80
2022/03/16 06:47:47;;;;;;;26.15;20.63;;;9.40;93.40;;;;;;5116488;28;20032;-80
2022/03/16 06:50:13;;;;;;;25.17;20.90;;;9.30;93.50;;;;;;5114881;28;20384;-80
2022/03/16 06:52:39;;;;;;;27.13;21.08;;;9.30;93.70;;;;;;5116556;28;20020;-80
2022/03/16 06:55:07;;;;;;;26.80;21.75;;;9.20;93.70;;;;;;5116269;28;20036;-81
2022/03/16 06:57:32;;;;;;;28.92;21.52;;;9.20;94.10;;;;;;5114789;28;20447;-80
2022/03/16 06:59:58;;;;;;;26.98;21.95;;;9.20;94.30;;;;;;5116532;28;20055;-80
2022/03/16 07:02:23;;;;;;;28.85;21.63;;;9.20;94.70;;;;;;5114703;28;20055;-80
2022/03/16 07:04:49;;;;;;;30.73;21.13;;;9.10;94.40;;;;;;5115374;28;20031;-80
2022/03/16 07:07:15;;;;;;;27.70;21.38;;;9.10;94.60;;;;;;5116095;28;20429;-80
2022/03/16 07:09:40;;;;;;;27.48;20.67;;;9.10;95.00;;;;;;5116387;28;20024;-81
2022/03/16 07:12:06;;;;;;;26.75;19.20;;;9.10;94.90;;;;;;5116180;28;20031;-82
2022/03/16 07:14:32;;;;;;;25.73;18.90;;;9.00;94.70;;;;;;5115643;28;20042;-80
2022/03/16 07:16:59;;;;;;;23.67;19.15;;;9.00;94.30;;;;;;5116148;28;20452;-79
2022/03/16 07:19:24;;;;;;;22.48;18.63;;;9.00;94.50;;;;;;5114438;28;20032;-80
2022/03/16 07:21:50;;;;;;;27.27;18.83;;;9.00;94.50;;;;;;5115878;28;20024;-80
2022/03/16 07:24:16;;;;;;;28.48;20.20;;;9.00;94.60;;;;;;5113871;28;20027;-78
2022/03/16 07:26:42;;;;;;;23.85;19.48;;;9.00;94.70;;;;;;5114872;28;20024;-80
2022/03/16 07:29:08;;;;;;;26.02;20.00;;;9.00;94.80;;;;;;5115745;27;20050;-80
2022/03/16 07:31:34;;;;;;;25.13;19.35;;;9.00;95.00;;;;;;5115027;28;20055;-80
2022/03/16 07:34:00;;;;;;;25.23;19.70;;;9.00;95.10;;;;;;5115678;28;20055;-81
2022/03/16 07:36:26;;;;;;;24.77;20.17;;;9.00;95.10;;;;;;5115414;28;20035;-81
2022/03/16 07:38:52;;;;;;;25.13;20.80;;;9.00;95.00;;;;;;5114275;28;20042;-80
2022/03/16 07:41:17;;;;;;;24.23;20.02;;;9.00;94.90;;;;;;5096012;28;20023;-80
2022/03/16 07:43:43;;;;;;;25.52;20.45;;;9.00;95.10;;;;;;5114007;28;20421;-81
2022/03/16 07:46:08;;;;;;;25.90;20.33;;;9.00;94.80;;;;;;5115107;28;20024;-81
2022/03/16 07:48:36;;;;;;;26.15;21.08;;;9.00;94.80;;;;;;5114760;28;20036;-81
2022/03/16 07:51:02;;;;;;;29.70;22.50;;;9.00;94.60;;;;;;5115189;28;20027;-81
2022/03/16 07:53:27;;;;;;;26.38;21.45;;;9.00;94.70;;;;;;5114644;28;20361;-81
2022/03/16 07:55:57;;;;;;;26.33;21.77;;;9.00;95.00;;;;;;5114849;28;20051;-82
2022/03/16 07:58:23;;;;;;;27.20;21.52;;;9.00;95.20;;;;;;5113207;28;20122;-80
2022/03/16 08:00:49;;;;;;;27.52;22.23;;;8.90;95.20;;;;;;5115048;28;20124;-81
2022/03/16 08:03:15;;;;;;;26.23;21.52;;;8.90;95.00;;;;;;5114617;28;20129;-80
2022/03/16 08:05:41;;;;;;;27.08;22.75;;;8.90;95.30;;;;;;5115172;28;20019;-80
2022/03/16 08:08:06;;;;;;;27.38;22.20;;;8.90;95.70;;;;;;5115272;28;20039;-81
2022/03/16 08:10:32;;;;;;;31.90;22.73;;;9.00;95.80;;;;;;5114324;28;20448;-80
2022/03/16 08:12:58;;;;;;;29.40;21.77;;;9.00;95.80;;;;;;5114853;28;20095;-79
2022/03/16 08:15:24;;;;;;;28.15;22.45;;;9.00;95.50;;;;;;5114267;28;20381;-80
2022/03/16 08:17:50;;;;;;;29.40;22.52;;;9.00;95.30;;;;;;5115284;27;20031;-81
2022/03/16 08:20:16;;;;;;;31.70;23.35;;;9.10;95.20;;;;;;5114225;28;20043;-79
2022/03/16 08:22:41;;;;;;;28.70;21.83;;;9.00;95.00;;;;;;5114706;28;20019;-81
2022/03/16 08:25:10;;;;;;;32.95;24.58;;;9.00;95.40;;;;;;5113186;28;20517;-81
2022/03/16 08:27:37;;;;;;;28.40;24.25;;;9.00;95.20;;;;;;5114152;28;20032;-79
2022/03/16 08:30:05;;;;;;;31.38;24.05;;;9.10;95.20;;;;;;5114819;28;20034;-81
2022/03/16 08:32:30;;;;;;;30.60;23.95;;;9.00;95.10;;;;;;5112684;28;20028;-80
2022/03/16 08:34:56;;;;;;;33.03;25.10;;;9.00;95.00;;;;;;5114764;28;20076;-80
2022/03/16 08:37:22;;;;;;;30.25;25.13;;;9.00;95.00;;;;;;5114114;28;20054;-80
2022/03/16 08:39:48;;;;;;;31.38;25.60;;;9.00;94.90;;;;;;5114062;28;20031;-80
2022/03/16 08:42:15;;;;;;;30.90;25.75;;;9.00;95.10;;;;;;5114578;28;20027;-80
2022/03/16 08:44:42;;;;;;;33.65;25.38;;;9.10;95.10;;;;;;5114263;28;20110;-80
2022/03/16 08:47:10;;;;;;;33.97;25.20;;;9.10;94.90;;;;;;5114939;28;20037;-80
2022/03/16 08:49:37;;;;;;;31.67;25.17;;;9.10;94.80;;;;;;5113872;28;20055;-81
2022/03/16 08:52:05;;;;;;;32.55;25.38;;;9.10;94.50;;;;;;5113394;28;20027;-82
2022/03/16 08:54:30;;;;;;;31.05;25.73;;;9.20;94.50;;;;;;5114687;28;20452;-81
2022/03/16 08:56:56;;;;;;;31.50;26.02;;;9.20;94.20;;;;;;5114639;28;20054;-80
2022/03/16 08:59:23;;;;;;;33.72;26.10;;;9.20;94.00;;;;;;5113484;28;20028;-80
2022/03/16 09:01:50;;;;;;;33.13;26.52;;;9.10;93.80;;;;;;5114594;28;20107;-81
2022/03/16 09:04:16;;;;;;;36.00;26.90;;;9.20;94.20;;;;;;5114575;28;20033;-80
2022/03/16 09:06:42;;;;;;;35.35;28.05;;;9.20;94.40;;;;;;5113666;28;20099;-81
2022/03/16 09:09:08;;;;;;;35.28;28.13;;;9.20;94.30;;;;;;5113734;28;20022;-80
2022/03/16 09:11:34;;;;;;;34.45;28.00;;;9.20;94.40;;;;;;5113104;28;20033;-81
2022/03/16 09:14:01;;;;;;;34.78;28.13;;;9.20;94.40;;;;;;5113638;28;20031;-81
2022/03/16 09:16:28;;;;;;;36.42;27.48;;;9.20;94.50;;;;;;5112668;28;20019;-80
2022/03/16 09:18:53;;;;;;;33.58;27.50;;;9.20;94.30;;;;;;5112112;28;20035;-79
2022/03/16 09:21:19;;;;;;;35.17;27.75;;;9.30;94.30;;;;;;5113604;28;20102;-80
2022/03/16 09:23:45;;;;;;;32.42;28.17;;;9.30;94.50;;;;;;5113630;28;20027;-80
2022/03/16 09:26:12;;;;;;;34.90;29.38;;;9.30;94.40;;;;;;5113412;28;20381;-80
2022/03/16 09:28:37;;;;;;;32.35;27.73;;;9.30;94.40;;;;;;5112781;28;20089;-81
2022/03/16 09:31:03;;;;;;;35.90;28.00;;;9.30;94.50;;;;;;5113302;28;20031;-81
2022/03/16 09:33:30;;;;;;;36.45;27.63;;;9.30;94.70;;;;;;5112499;28;20030;-80
2022/03/16 09:35:56;;;;;;;34.50;27.52;;;9.30;95.00;;;;;;5113125;28;20032;-80
2022/03/16 09:38:22;;;;;;;34.38;28.08;;;9.30;94.90;;;;;;5112355;28;20047;-79
2022/03/16 09:40:53;;;;;;;36.45;29.08;;;9.30;95.10;;;;;;5111786;28;20464;-80
2022/03/16 09:43:22;;;;;;;33.45;27.58;;;9.30;95.00;;;;;;5112019;28;20023;-79
2022/03/16 09:45:56;;;;;;;37.15;28.05;;;9.30;94.90;;;;;;5113222;28;20403;-80
2022/03/16 09:48:26;;;;;;;34.03;27.85;;;9.30;95.00;;;;;;5112501;28;20453;-79
2022/03/16 09:50:53;;;;;;;34.30;28.40;;;9.30;94.90;;;;;;5112957;28;20019;-79
2022/03/16 09:53:20;;;;;;;35.13;29.08;;;9.30;94.90;;;;;;5112877;28;20031;-79
2022/03/16 09:55:46;;;;;;;35.83;27.92;;;9.30;94.90;;;;;;5112439;28;20059;-80
2022/03/16 10:00:56;;;;;;;36.97;28.33;;;9.30;95.00;;;;;;5112731;28;20085;-81
2022/03/16 10:03:25;;;;;;;37.13;29.75;;;9.20;94.80;;;;;;5112834;28;20448;-80
2022/03/16 10:05:51;;;;;;;35.72;28.63;;;9.30;94.60;;;;;;5111285;28;20031;-81
2022/03/16 10:08:28;;;;;;;35.10;29.63;;;9.20;94.30;;;;;;5112625;28;20031;-80
2022/03/16 10:13:57;;;;;;;34.08;29.30;;;9.20;94.40;;;;;;5112469;28;20096;-79
2022/03/16 10:16:24;;;;;;;35.63;28.30;;;9.30;94.30;;;;;;5112233;28;20022;-79
2022/03/16 10:18:57;;;;;;;37.58;28.45;;;9.30;94.10;;;;;;5112258;28;20031;-79
2022/03/16 10:21:24;;;;;;;34.42;29.23;;;9.30;93.70;;;;;;5112353;28;20019;-80
2022/03/16 10:23:50;;;;;;;33.20;27.65;;;9.30;93.80;;;;;;5112382;28;20031;-81
2022/03/16 10:26:18;;;;;;;35.25;28.75;;;9.40;94.00;;;;;;5112079;28;20024;-80
2022/03/16 10:28:48;;;;;;;33.78;28.50;;;9.30;93.80;;;;;;5111873;28;20304;-80
2022/03/16 10:31:16;;;;;;;38.35;30.80;;;9.30;94.10;;;;;;5112334;28;20059;-80
2022/03/16 10:33:50;;;;;;;37.35;31.00;;;9.30;94.00;;;;;;5111776;28;20031;-81
2022/03/16 10:36:18;;;;;;;35.40;28.92;;;9.30;93.90;;;;;;5112054;28;20024;-81
2022/03/16 10:38:45;;;;;;;34.25;29.13;;;9.30;93.40;;;;;;5111728;28;20032;-81
2022/03/16 10:46:34;;;;;;;35.35;28.05;;;9.30;93.00;;;;;;5112246;28;20060;-80
2022/03/16 10:46:46;;;;;;;33.17;27.88;;;9.40;92.80;;;;;;5111370;28;20252;-80
2022/03/16 10:49:16;;;;;;;30.15;25.38;;;9.40;92.70;;;;;;5112137;28;20104;-81
2022/03/16 10:51:46;;;;;;;28.50;22.13;;;9.40;92.70;;;;;;5111571;28;20028;-80
2022/03/16 10:54:15;;;;;;;27.88;22.15;;;9.40;92.20;;;;;;5111706;28;20467;-80
2022/03/16 10:56:42;;;;;;;21.77;18.17;;;9.40;91.90;;;;;;5111944;28;20047;-80
2022/03/16 10:59:08;;;;;;;19.13;17.00;;;9.40;91.10;;;;;;5112245;28;20031;-79
2022/03/16 11:01:38;;;;;;;22.38;17.00;;;9.40;90.30;;;;;;5111679;28;20055;-80
2022/03/16 11:04:04;;;;;;;20.33;16.95;;;9.40;90.10;;;;;;5111934;28;20110;-81
2022/03/16 11:06:31;;;;;;;18.25;16.17;;;9.40;90.00;;;;;;5111505;28;20027;-80
2022/03/16 11:08:59;;;;;;;20.60;16.50;;;9.30;89.60;;;;;;5111863;28;20077;-80
2022/03/16 11:14:12;;;;;;;20.60;16.33;;;9.30;89.10;;;;;;5111907;28;20031;-80
2022/03/16 11:16:38;;;;;;;22.50;16.92;;;9.40;88.90;;;;;;5111696;28;20404;-79
2022/03/16 11:19:05;;;;;;;17.10;15.30;;;9.40;89.20;;;;;;5115491;28;20037;-80
2022/03/16 11:21:48;;;;;;;19.33;15.52;;;9.40;88.50;;;;;;5113854;28;20464;-79
2022/03/16 11:24:19;;;;;;;18.77;16.23;;;9.40;88.30;;;;;;5115802;28;20060;-79
2022/03/16 11:27:15;;;;;;;18.30;15.75;;;9.40;87.50;;;;;;5115088;28;20028;-79
2022/03/16 11:30:02;;;;;;;17.92;16.00;;;9.40;88.10;;;;;;5114917;28;20036;-81
2022/03/16 11:32:38;;;;;;;17.75;13.75;;;9.40;87.40;;;;;;5115288;28;20054;-81
2022/03/16 11:35:14;;;;;;;16.30;13.30;;;9.40;86.50;;;;;;5115543;28;20531;-80
2022/03/16 11:37:44;;;;;;;16.17;14.35;;;9.40;85.10;;;;;;5114529;28;20035;-79
2022/03/16 11:40:22;;;;;;;15.10;12.65;;;9.50;85.50;;;;;;5115037;28;20462;-80
2022/03/16 11:43:04;;;;;;;16.38;13.02;;;9.50;85.40;;;;;;5114843;28;20028;-80
2022/03/16 11:45:38;;;;;;;15.52;13.55;;;9.60;86.00;;;;;;5115116;28;20353;-79
2022/03/16 11:48:32;;;;;;;14.60;13.15;;;9.70;86.60;;;;;;5115246;28;20030;-79
2022/03/16 11:54:05;;;;;;;16.50;14.05;;;9.80;85.60;;;;;;5114931;28;20117;-80
2022/03/16 11:56:40;;;;;;;16.40;14.05;;;9.80;85.50;;;;;;5114674;28;20408;-78
2022/03/16 11:59:17;;;;;;;15.65;13.95;;;9.80;85.60;;;;;;5114647;28;20024;-79
2022/03/16 12:01:49;;;;;;;16.52;14.02;;;9.80;85.60;;;;;;5113189;28;20372;-79
2022/03/16 12:04:21;;;;;;;16.65;13.85;;;9.80;84.20;;;;;;5114614;28;20035;-80
2022/03/16 12:07:01;;;;;;;18.75;15.60;;;9.80;84.30;;;;;;5114769;28;20031;-79
2022/03/16 12:09:49;;;;;;;16.92;14.52;;;9.80;84.50;;;;;;5115141;28;20055;-80
2022/03/16 12:15:21;;;;;;;20.40;17.67;;;9.80;85.70;;;;;;5114700;28;20062;-81
2022/03/16 12:17:53;;;;;;;19.52;17.33;;;9.80;85.40;;;;;;5112962;28;20115;-80
2022/03/16 12:20:31;;;;;;;20.40;17.77;;;9.90;85.00;;;;;;5114425;28;20023;-79
2022/03/16 12:23:38;;;;;;;22.38;18.10;;;9.90;84.80;;;;;;5114227;28;20027;-80
2022/03/16 12:26:04;;;;;;;21.90;18.13;;;9.90;85.00;;;;;;5086627;28;20411;-82
2022/03/16 12:31:17;;;;;;;24.02;17.83;;;9.90;85.50;;;;;;5114552;28;20153;-80
2022/03/16 12:33:45;;;;;;;21.58;17.15;;;9.90;85.10;;;;;;5113949;28;20028;-78
2022/03/16 12:36:12;;;;;;;22.60;16.90;;;9.90;85.10;;;;;;5114463;28;20028;-79
2022/03/16 12:38:43;;;;;;;24.70;18.17;;;9.80;85.20;;;;;;5113441;28;20048;-80
2022/03/16 12:43:56;;;;;;;26.10;18.00;;;9.90;85.30;;;;;;5113656;28;20483;-80
2022/03/16 12:46:37;;;;;;;22.17;17.55;;;9.90;85.30;;;;;;5113741;28;20453;-80
2022/03/16 12:49:04;;;;;;;21.52;17.50;;;10.00;84.90;;;;;;5114170;28;20034;-80
2022/03/16 12:51:37;;;;;;;24.00;19.05;;;10.00;84.60;;;;;;5113996;28;20038;-80
2022/03/16 12:54:05;;;;;;;26.35;19.67;;;10.10;84.80;;;;;;5114015;28;20027;-79
2022/03/16 12:56:36;;;;;;;24.52;19.13;;;10.10;84.10;;;;;;5113599;28;20050;-78
2022/03/16 12:59:02;;;;;;;24.98;19.42;;;10.20;84.10;;;;;;5113515;28;20057;-80